createdAt,value
2018-02-14T00:00:33.439Z,-3.00
2018-02-14T00:03:01.754Z,-3.10
2018-02-14T00:05:30.141Z,-3.01
2018-02-14T00:07:58.477Z,-3.01
2018-02-14T00:10:26.782Z,-2.99
2018-02-14T00:12:55.135Z,-3.13
2018-02-14T00:15:23.459Z,-2.99
2018-02-14T00:17:51.807Z,-3.22
2018-02-14T00:20:20.127Z,-3.06
2018-02-14T00:22:48.479Z,-2.91
2018-02-14T00:25:16.906Z,-3.21
2018-02-14T00:27:45.350Z,-3.25
2018-02-14T00:30:13.822Z,-3.21
2018-02-14T00:32:42.148Z,-3.34
2018-02-14T00:35:11.318Z,-3.48
2018-02-14T00:37:39.641Z,-3.48
2018-02-14T00:42:42.650Z,-3.58
2018-02-14T00:45:11.010Z,-3.50
2018-02-14T00:47:39.330Z,-3.52
2018-02-14T00:50:07.670Z,-3.59
2018-02-14T00:52:36.012Z,-3.53
2018-02-14T00:55:04.338Z,-3.55
2018-02-14T00:57:32.753Z,-3.62
2018-02-14T01:00:01.166Z,-3.62
2018-02-14T01:02:29.503Z,-3.52
2018-02-14T01:04:57.839Z,-3.63
2018-02-14T01:07:26.214Z,-3.46
2018-02-14T01:09:54.538Z,-3.59
2018-02-14T01:12:22.875Z,-3.47
2018-02-14T01:14:51.225Z,-3.43
2018-02-14T01:17:19.550Z,-3.54
2018-02-14T01:19:48.206Z,-3.63
2018-02-14T01:22:16.532Z,-3.71
2018-02-14T01:24:44.898Z,-3.63
2018-02-14T01:27:13.216Z,-3.51
2018-02-14T01:29:41.538Z,-3.69
2018-02-14T01:32:09.894Z,-3.69
2018-02-14T01:34:38.257Z,-3.67
2018-02-14T01:37:06.585Z,-3.74
2018-02-14T01:39:34.921Z,-3.75
2018-02-14T01:42:03.391Z,-3.71
2018-02-14T01:44:31.711Z,-3.68
2018-02-14T01:47:00.040Z,-3.71
2018-02-14T01:49:28.422Z,-3.87
2018-02-14T01:51:56.738Z,-3.77
2018-02-14T01:54:25.192Z,-3.81
2018-02-14T01:56:53.492Z,-3.87
2018-02-14T01:59:21.910Z,-3.79
2018-02-14T02:01:50.258Z,-3.87
2018-02-14T02:04:18.598Z,-4.03
2018-02-14T02:06:46.925Z,-4.09
2018-02-14T02:09:15.294Z,-4.02
2018-02-14T02:11:43.648Z,-3.90
2018-02-14T02:14:12.066Z,-3.85
2018-02-14T02:16:40.420Z,-4.05
2018-02-14T02:19:08.739Z,-4.12
2018-02-14T02:21:37.087Z,-4.18
2018-02-14T02:24:05.515Z,-4.06
2018-02-14T02:26:33.893Z,-3.93
2018-02-14T02:29:02.199Z,-3.96
2018-02-14T02:31:30.551Z,-4.06
2018-02-14T02:33:58.930Z,-4.22
2018-02-14T02:36:27.375Z,-4.22
2018-02-14T02:38:55.698Z,-4.25
2018-02-14T02:41:24.007Z,-4.15
2018-02-14T02:43:52.398Z,-4.16
2018-02-14T02:46:20.806Z,-4.21
2018-02-14T02:48:49.151Z,-4.40
2018-02-14T02:51:17.534Z,-4.23
2018-02-14T02:53:45.893Z,-4.24
2018-02-14T02:56:14.218Z,-4.37
2018-02-14T02:58:42.553Z,-4.23
2018-02-14T03:01:10.896Z,-4.13
2018-02-14T03:03:39.245Z,-4.19
2018-02-14T03:06:07.598Z,-4.33
2018-02-14T03:08:36.106Z,-4.43
2018-02-14T03:11:04.439Z,-4.46
2018-02-14T03:13:32.768Z,-4.55
2018-02-14T03:16:01.108Z,-4.50
2018-02-14T03:18:29.432Z,-4.46
2018-02-14T03:20:57.866Z,-4.39
2018-02-14T03:23:26.243Z,-4.38
2018-02-14T03:25:54.604Z,-4.40
2018-02-14T03:28:22.942Z,-4.42
2018-02-14T03:30:51.270Z,-4.40
2018-02-14T03:33:19.595Z,-4.35
2018-02-14T03:35:47.950Z,-4.19
2018-02-14T03:38:16.283Z,-4.11
2018-02-14T03:40:44.599Z,-4.11
2018-02-14T03:43:12.967Z,-4.33
2018-02-14T03:45:41.295Z,-4.45
2018-02-14T03:48:09.642Z,-4.39
2018-02-14T03:50:37.970Z,-4.57
2018-02-14T03:53:06.326Z,-4.70
2018-02-14T03:55:34.692Z,-4.78
2018-02-14T03:58:03.253Z,-4.60
2018-02-14T04:00:31.570Z,-4.68
2018-02-14T04:02:59.886Z,-4.62
2018-02-14T04:05:28.242Z,-4.50
2018-02-14T04:07:56.581Z,-4.36
2018-02-14T04:10:24.937Z,-4.31
2018-02-14T04:12:53.307Z,-4.20
2018-02-14T04:15:21.649Z,-4.34
2018-02-14T04:17:50.063Z,-4.53
2018-02-14T04:20:18.441Z,-4.55
2018-02-14T04:22:46.785Z,-4.63
2018-02-14T04:25:15.158Z,-4.54
2018-02-14T04:27:43.478Z,-4.71
2018-02-14T04:30:11.806Z,-4.68
2018-02-14T04:32:40.218Z,-4.75
2018-02-14T04:35:08.658Z,-4.72
2018-02-14T04:37:37.157Z,-4.80
2018-02-14T04:40:05.810Z,-4.74
2018-02-14T04:42:34.166Z,-4.77
2018-02-14T04:45:02.502Z,-4.81
2018-02-14T04:47:30.857Z,-4.64
2018-02-14T04:49:59.221Z,-4.43
2018-02-14T04:52:27.540Z,-4.46
2018-02-14T04:54:55.883Z,-4.62
2018-02-14T04:57:24.211Z,-4.74
2018-02-14T04:59:52.568Z,-4.89
2018-02-14T05:02:20.887Z,-4.97
2018-02-14T05:04:49.239Z,-4.80
2018-02-14T05:07:17.558Z,-4.81
2018-02-14T05:09:46.148Z,-4.70
2018-02-14T05:12:14.524Z,-4.78
2018-02-14T05:14:42.902Z,-4.83
2018-02-14T05:17:11.258Z,-4.70
2018-02-14T05:19:39.592Z,-4.81
2018-02-14T05:22:08.039Z,-4.92
2018-02-14T05:24:36.355Z,-4.92
2018-02-14T05:27:04.720Z,-4.92
2018-02-14T05:29:33.680Z,-4.96
2018-02-14T05:32:02.019Z,-4.92
2018-02-14T05:34:30.362Z,-4.80
2018-02-14T05:36:59.091Z,-4.68
2018-02-14T05:39:27.431Z,-4.88
2018-02-14T05:41:55.815Z,-4.85
2018-02-14T05:44:24.227Z,-4.86
2018-02-14T05:46:52.556Z,-4.96
2018-02-14T05:49:20.907Z,-4.97
2018-02-14T05:51:49.243Z,-5.00
2018-02-14T05:54:17.702Z,-4.99
2018-02-14T05:56:46.027Z,-5.01
2018-02-14T05:59:14.391Z,-4.98
2018-02-14T06:01:42.718Z,-5.00
2018-02-14T06:04:11.066Z,-5.05
2018-02-14T06:06:39.398Z,-5.00
2018-02-14T06:09:07.770Z,-5.16
2018-02-14T06:11:36.148Z,-5.20
2018-02-14T06:14:04.481Z,-5.14
2018-02-14T06:16:32.831Z,-5.13
2018-02-14T06:19:01.159Z,-5.04
2018-02-14T06:21:29.529Z,-5.00
2018-02-14T06:23:58.019Z,-5.10
2018-02-14T06:26:27.615Z,-5.16
2018-02-14T06:28:55.935Z,-5.04
2018-02-14T06:31:24.306Z,-5.01
2018-02-14T06:33:52.635Z,-4.89
2018-02-14T06:36:20.986Z,-4.97
2018-02-14T06:38:49.405Z,-4.99
2018-02-14T06:41:17.722Z,-4.87
2018-02-14T06:43:46.066Z,-4.86
2018-02-14T06:46:14.398Z,-4.92
2018-02-14T06:48:42.759Z,-4.91
2018-02-14T06:51:11.086Z,-4.85
2018-02-14T06:53:39.549Z,-4.73
2018-02-14T06:56:07.868Z,-4.65
2018-02-14T06:58:36.235Z,-4.61
2018-02-14T07:01:04.561Z,-4.67
2018-02-14T07:03:32.911Z,-4.55
2018-02-14T07:06:01.239Z,-4.65
2018-02-14T07:08:29.604Z,-4.56
2018-02-14T07:10:57.982Z,-4.58
2018-02-14T07:13:26.308Z,-4.53
2018-02-14T07:15:54.734Z,-4.39
2018-02-14T07:18:23.067Z,-4.36
2018-02-14T07:20:51.398Z,-4.19
2018-02-14T07:23:25.404Z,-4.12
2018-02-14T07:25:53.781Z,-4.06
2018-02-14T07:28:22.255Z,-4.08
2018-02-14T07:30:50.590Z,-3.99
2018-02-14T07:33:18.942Z,-4.00
2018-02-14T07:35:47.266Z,-4.01
2018-02-14T07:38:15.628Z,-3.90
2018-02-14T07:40:43.997Z,-3.85
2018-02-14T07:43:12.328Z,-3.78
2018-02-14T07:45:40.651Z,-3.73
2018-02-14T07:48:09.338Z,-3.60
2018-02-14T07:50:37.646Z,-3.55
2018-02-14T07:53:06.049Z,-3.50
2018-02-14T07:55:34.394Z,-3.43
2018-02-14T07:58:02.722Z,-3.41
2018-02-14T08:00:31.075Z,-3.38
2018-02-14T08:02:59.409Z,-3.32
2018-02-14T08:05:27.754Z,-3.15
2018-02-14T08:07:56.089Z,-3.10
2018-02-14T08:10:24.441Z,-2.98
2018-02-14T08:12:52.762Z,-2.96
2018-02-14T08:15:21.139Z,-3.02
2018-02-14T08:17:49.470Z,-2.88
2018-02-14T08:20:17.784Z,-2.76
2018-02-14T08:22:46.126Z,-2.73
2018-02-14T08:25:14.590Z,-2.68
2018-02-14T08:27:42.921Z,-2.58
2018-02-14T08:30:11.276Z,-2.57
2018-02-14T08:32:39.657Z,-2.44
2018-02-14T08:35:07.981Z,-2.40
2018-02-14T08:37:36.373Z,-2.31
2018-02-14T08:40:04.687Z,-2.33
2018-02-14T08:42:33.065Z,-2.26
2018-02-14T08:45:01.537Z,-2.25
2018-02-14T08:47:29.854Z,-2.21
2018-02-14T08:49:58.208Z,-2.15
2018-02-14T08:52:26.614Z,-2.10
2018-02-14T08:54:54.950Z,-1.97
2018-02-14T08:57:23.302Z,-1.88
2018-02-14T08:59:51.646Z,-1.78
2018-02-14T09:02:19.974Z,-1.74
2018-02-14T09:04:48.394Z,-1.71
2018-02-14T09:07:16.732Z,-1.58
2018-02-14T09:09:45.133Z,-1.53
2018-02-14T09:12:13.467Z,-1.42
2018-02-14T09:14:41.797Z,-1.48
2018-02-14T09:17:10.157Z,-1.51
2018-02-14T09:19:38.503Z,-1.35
2018-02-14T09:22:06.983Z,-1.15
2018-02-14T09:24:35.305Z,-1.17
2018-02-14T09:27:03.667Z,-1.23
2018-02-14T09:29:32.078Z,-1.21
2018-02-14T09:32:00.453Z,-1.17
2018-02-14T09:34:28.784Z,-1.06
2018-02-14T09:36:57.153Z,-0.97
2018-02-14T09:39:25.528Z,-0.97
2018-02-14T09:41:53.991Z,-0.82
2018-02-14T09:44:22.322Z,-0.83
2018-02-14T09:46:50.645Z,-0.80
2018-02-14T09:49:19.013Z,-0.70
2018-02-14T09:51:47.421Z,-0.62
2018-02-14T09:54:15.751Z,-0.33
2018-02-14T09:56:44.131Z,-0.29
2018-02-14T09:59:12.503Z,-0.31
2018-02-14T10:01:40.849Z,-0.23
2018-02-14T10:04:09.245Z,-0.17
2018-02-14T10:06:37.593Z,-0.03
2018-02-14T10:09:05.895Z,0.09
2018-02-14T10:11:34.242Z,0.09
2018-02-14T10:14:02.564Z,0.08
2018-02-14T10:16:30.906Z,0.15
2018-02-14T10:18:59.234Z,0.21
2018-02-14T10:21:27.566Z,0.27
2018-02-14T10:23:55.957Z,0.39
2018-02-14T10:26:24.293Z,0.52
2018-02-14T10:28:52.610Z,0.71
2018-02-14T10:31:20.957Z,0.79
2018-02-14T10:33:49.265Z,0.85
2018-02-14T10:36:17.583Z,1.07
2018-02-14T10:38:45.931Z,0.92
2018-02-14T10:41:14.243Z,0.62
2018-02-14T10:43:42.610Z,0.79
2018-02-14T10:46:10.928Z,1.13
2018-02-14T10:48:39.302Z,1.04
2018-02-14T10:51:07.607Z,1.06
2018-02-14T10:53:35.950Z,1.16
2018-02-14T10:56:04.258Z,1.36
2018-02-14T10:58:32.820Z,1.45
2018-02-14T11:01:02.026Z,1.37
2018-02-14T11:03:36.129Z,1.24
2018-02-14T11:06:10.021Z,1.37
2018-02-14T11:08:38.393Z,1.69
2018-02-14T11:11:06.700Z,1.83
2018-02-14T11:13:35.011Z,2.02
2018-02-14T11:16:03.345Z,1.99
2018-02-14T11:18:31.650Z,2.29
2018-02-14T11:21:00.030Z,2.79
2018-02-14T11:23:28.434Z,3.21
2018-02-14T11:25:56.824Z,3.30
2018-02-14T11:28:25.194Z,3.45
2018-02-14T11:30:53.522Z,3.08
2018-02-14T11:33:21.837Z,3.41
2018-02-14T11:35:50.185Z,3.80
2018-02-14T11:38:18.628Z,5.09
2018-02-14T11:40:47.011Z,4.40
2018-02-14T11:43:15.337Z,4.36
2018-02-14T11:45:44.634Z,5.36
2018-02-14T11:48:13.081Z,7.52
2018-02-14T11:50:41.381Z,8.21
2018-02-14T11:53:09.735Z,10.20
2018-02-14T11:55:38.055Z,9.80
2018-02-14T11:58:06.407Z,10.47
2018-02-14T12:00:34.730Z,10.57
2018-02-14T12:03:03.116Z,9.70
2018-02-14T12:05:31.426Z,9.49
2018-02-14T12:07:59.746Z,11.37
2018-02-14T12:10:28.131Z,12.42
2018-02-14T12:12:56.538Z,12.31
2018-02-14T12:15:24.874Z,12.02
2018-02-14T12:17:53.213Z,11.78
2018-02-14T12:20:21.568Z,12.50
2018-02-14T12:22:49.909Z,14.33
2018-02-14T12:25:18.248Z,13.19
2018-02-14T12:27:46.575Z,11.91
2018-02-14T12:30:14.973Z,13.71
2018-02-14T12:32:43.308Z,13.29
2018-02-14T12:35:11.620Z,13.23
2018-02-14T12:37:39.983Z,12.95
2018-02-14T12:40:08.323Z,13.50
2018-02-14T12:42:36.666Z,13.84
2018-02-14T12:45:04.994Z,14.27
2018-02-14T12:47:33.354Z,15.74
2018-02-14T12:50:01.706Z,13.99
2018-02-14T12:52:30.040Z,12.64
2018-02-14T12:54:58.385Z,14.37
2018-02-14T12:57:26.705Z,16.69
2018-02-14T12:59:55.036Z,15.03
2018-02-14T13:02:23.373Z,14.26
2018-02-14T13:04:51.713Z,14.32
2018-02-14T13:07:20.035Z,16.00
2018-02-14T13:09:48.385Z,15.39
2018-02-14T13:12:16.705Z,15.71
2018-02-14T13:14:45.068Z,15.26
2018-02-14T13:17:13.435Z,15.63
2018-02-14T13:19:41.763Z,14.99
2018-02-14T13:22:10.166Z,15.24
2018-02-14T13:24:38.529Z,16.42
2018-02-14T13:27:06.885Z,16.54
2018-02-14T13:29:35.265Z,16.59
2018-02-14T13:32:03.614Z,14.89
2018-02-14T13:34:31.962Z,14.06
2018-02-14T13:37:00.298Z,13.99
2018-02-14T13:39:28.650Z,15.00
2018-02-14T13:41:56.982Z,14.34
2018-02-14T13:44:25.604Z,16.58
2018-02-14T13:46:53.929Z,15.51
2018-02-14T13:49:22.255Z,14.24
2018-02-14T13:51:50.669Z,15.74
2018-02-14T13:54:19.001Z,14.69
2018-02-14T13:56:47.403Z,13.38
2018-02-14T13:59:15.770Z,11.04
2018-02-14T14:01:44.167Z,11.43
2018-02-14T14:04:12.496Z,12.91
2018-02-14T14:06:40.819Z,14.02
2018-02-14T14:09:09.162Z,14.76
2018-02-14T14:11:37.498Z,13.61
2018-02-14T14:14:05.854Z,12.40
2018-02-14T14:16:34.186Z,13.54
2018-02-14T14:19:02.572Z,12.47
2018-02-14T14:21:30.873Z,11.44
2018-02-14T14:23:59.215Z,13.17
2018-02-14T14:26:27.565Z,13.86
2018-02-14T14:28:55.905Z,13.50
2018-02-14T14:31:24.275Z,12.46
2018-02-14T14:33:52.595Z,12.18
2018-02-14T14:36:20.943Z,11.71
2018-02-14T14:38:49.343Z,8.29
2018-02-14T14:41:17.672Z,7.52
2018-02-14T14:43:45.999Z,10.48
2018-02-14T14:46:14.435Z,11.15
2018-02-14T14:48:42.779Z,11.81
2018-02-14T14:51:11.116Z,10.21
2018-02-14T14:53:39.460Z,6.94
2018-02-14T14:56:07.774Z,6.06
2018-02-14T14:58:36.110Z,5.33
2018-02-14T15:01:04.429Z,4.96
2018-02-14T15:03:32.786Z,8.39
2018-02-14T15:06:01.126Z,8.80
2018-02-14T15:08:29.433Z,8.77
2018-02-14T15:10:57.796Z,8.78
2018-02-14T15:13:26.157Z,8.78
2018-02-14T15:15:54.507Z,8.18
2018-02-14T15:18:22.827Z,7.15
2018-02-14T15:20:51.179Z,6.95
2018-02-14T15:23:19.483Z,6.50
2018-02-14T15:25:47.862Z,5.97
2018-02-14T15:28:16.194Z,5.16
2018-02-14T15:30:44.514Z,5.54
2018-02-14T15:33:13.014Z,5.17
2018-02-14T15:35:41.339Z,4.67
2018-02-14T15:38:09.681Z,4.38
2018-02-14T15:40:38.012Z,4.34
2018-02-14T15:43:06.530Z,4.27
2018-02-14T15:45:35.194Z,4.56
2018-02-14T15:48:03.540Z,4.12
2018-02-14T15:50:31.860Z,3.75
2018-02-14T15:53:00.184Z,3.58
2018-02-14T15:55:28.535Z,3.68
2018-02-14T15:57:56.877Z,3.28
2018-02-14T16:00:25.222Z,3.03
2018-02-14T16:02:53.544Z,2.88
2018-02-14T16:05:21.958Z,2.78
2018-02-14T16:07:50.275Z,2.68
2018-02-14T16:10:18.640Z,2.62
2018-02-14T16:12:46.966Z,2.35
2018-02-14T16:15:15.360Z,2.37
2018-02-14T16:17:43.679Z,2.19
2018-02-14T16:20:12.038Z,2.14
2018-02-14T16:22:40.370Z,2.11
2018-02-14T16:25:08.720Z,2.00
2018-02-14T16:27:37.064Z,1.83
2018-02-14T16:30:05.405Z,1.78
2018-02-14T16:32:33.828Z,1.67
2018-02-14T16:35:02.131Z,1.63
2018-02-14T16:37:30.513Z,1.46
2018-02-14T16:39:58.826Z,1.26
2018-02-14T16:42:27.295Z,1.21
2018-02-14T16:44:56.609Z,1.17
2018-02-14T16:47:24.923Z,1.10
2018-02-14T16:49:53.272Z,0.97
2018-02-14T16:52:21.631Z,0.87
2018-02-14T16:54:49.975Z,1.00
2018-02-14T16:57:18.429Z,0.88
2018-02-14T16:59:46.878Z,0.88
2018-02-14T17:02:15.288Z,0.79
2018-02-14T17:04:43.744Z,0.66
2018-02-14T17:07:13.002Z,0.71
2018-02-14T17:09:41.417Z,0.55
2018-02-14T17:12:09.813Z,0.66
2018-02-14T17:14:38.397Z,0.50
2018-02-14T17:17:06.746Z,0.48
2018-02-14T17:19:35.061Z,0.44
2018-02-14T17:22:03.397Z,0.38
2018-02-14T17:24:31.749Z,0.35
2018-02-14T17:27:00.084Z,0.32
2018-02-14T17:29:28.470Z,0.34
2018-02-14T17:31:56.812Z,0.26
2018-02-14T17:34:25.148Z,0.26
2018-02-14T17:36:53.505Z,0.20
2018-02-14T17:39:21.946Z,0.17
2018-02-14T17:41:50.276Z,0.18
2018-02-14T17:44:18.598Z,0.21
2018-02-14T17:46:46.949Z,0.25
2018-02-14T17:49:15.294Z,0.12
2018-02-14T17:51:43.645Z,0.13
2018-02-14T17:54:11.978Z,0.11
2018-02-14T17:56:40.315Z,0.12
2018-02-14T17:59:08.710Z,0.04
2018-02-14T18:01:37.145Z,0.02
2018-02-14T18:04:05.563Z,-0.06
2018-02-14T18:06:33.875Z,-0.05
2018-02-14T18:09:02.247Z,-0.14
2018-02-14T18:11:30.576Z,-0.21
2018-02-14T18:13:58.934Z,-0.22
2018-02-14T18:16:27.274Z,-0.14
2018-02-14T18:18:55.620Z,-0.11
2018-02-14T18:21:23.998Z,-0.05
2018-02-14T18:23:52.349Z,-0.19
2018-02-14T18:26:20.742Z,-0.26
2018-02-14T18:28:49.070Z,-0.31
2018-02-14T18:31:17.442Z,-0.38
2018-02-14T18:33:45.771Z,-0.38
2018-02-14T18:36:14.176Z,-0.44
2018-02-14T18:38:42.493Z,-0.44
2018-02-14T18:41:10.840Z,-0.46
2018-02-14T18:43:39.167Z,-0.39
2018-02-14T18:46:07.663Z,-0.45
2018-02-14T18:48:35.992Z,-0.44
2018-02-14T18:51:04.351Z,-0.45
2018-02-14T18:53:32.721Z,-0.62
2018-02-14T18:56:01.051Z,-0.64
2018-02-14T18:58:29.390Z,-0.79
2018-02-14T19:00:58.711Z,-0.73
2018-02-14T19:03:27.066Z,-0.66
2018-02-14T19:05:55.444Z,-0.75
2018-02-14T19:08:23.858Z,-0.78
2018-02-14T19:10:52.189Z,-0.79
2018-02-14T19:13:20.550Z,-0.81
2018-02-14T19:15:48.902Z,-0.90
2018-02-14T19:18:17.235Z,-0.94
2018-02-14T19:20:45.614Z,-0.96
2018-02-14T19:23:13.927Z,-0.88
2018-02-14T19:25:42.273Z,-0.93
2018-02-14T19:28:10.613Z,-0.94
2018-02-14T19:30:38.953Z,-0.99
2018-02-14T19:33:07.291Z,-1.01
2018-02-14T19:35:35.643Z,-1.01
2018-02-14T19:38:03.979Z,-1.05
2018-02-14T19:40:32.349Z,-0.95
2018-02-14T19:43:00.797Z,-0.96
2018-02-14T19:45:29.154Z,-0.98
2018-02-14T19:47:57.490Z,-0.86
2018-02-14T19:50:25.810Z,-1.07
2018-02-14T19:52:54.165Z,-0.93
2018-02-14T19:55:22.496Z,-0.82
2018-02-14T19:57:50.846Z,-0.92
2018-02-14T20:00:19.175Z,-1.01
2018-02-14T20:02:47.545Z,-1.03
2018-02-14T20:05:15.877Z,-1.05
2018-02-14T20:07:44.268Z,-1.18
2018-02-14T20:10:12.611Z,-1.25
2018-02-14T20:12:41.449Z,-1.17
2018-02-14T20:15:09.804Z,-1.27
2018-02-14T20:17:38.202Z,-1.32
2018-02-14T20:20:06.552Z,-1.41
2018-02-14T20:22:34.894Z,-1.45
2018-02-14T20:25:03.250Z,-1.44
2018-02-14T20:27:31.578Z,-1.35
2018-02-14T20:29:59.926Z,-1.44
2018-02-14T20:32:28.251Z,-1.47
2018-02-14T20:34:56.610Z,-1.48
2018-02-14T20:37:25.020Z,-1.53
2018-02-14T20:39:53.329Z,-1.57
2018-02-14T20:42:21.692Z,-1.46
2018-02-14T20:44:50.023Z,-1.48
2018-02-14T20:47:18.388Z,-1.52
2018-02-14T20:49:46.727Z,-1.73
2018-02-14T20:52:15.492Z,-1.60
2018-02-14T20:54:43.787Z,-1.46
2018-02-14T20:57:12.117Z,-1.29
2018-02-14T20:59:40.520Z,-1.34
2018-02-14T21:02:08.865Z,-1.37
2018-02-14T21:04:37.242Z,-1.48
2018-02-14T21:07:06.280Z,-1.56
2018-02-14T21:09:34.746Z,-1.45
2018-02-14T21:12:03.098Z,-1.52
2018-02-14T21:14:31.474Z,-1.46
2018-02-14T21:16:59.810Z,-1.54
2018-02-14T21:19:28.245Z,-1.55
2018-02-14T21:21:56.591Z,-1.54
2018-02-14T21:24:25.818Z,-1.52
2018-02-14T21:26:54.175Z,-1.59
2018-02-14T21:29:22.517Z,-1.57
2018-02-14T21:31:50.899Z,-1.61
2018-02-14T21:34:19.367Z,-1.56
2018-02-14T21:36:48.033Z,-1.60
2018-02-14T21:39:16.381Z,-1.74
2018-02-14T21:41:44.714Z,-1.65
2018-02-14T21:44:13.082Z,-1.65
2018-02-14T21:46:41.436Z,-1.67
2018-02-14T21:49:09.812Z,-1.58
2018-02-14T21:51:38.173Z,-1.60
2018-02-14T21:54:06.533Z,-1.66
2018-02-14T21:56:34.930Z,-1.81
2018-02-14T21:59:03.338Z,-1.90
2018-02-14T22:01:31.704Z,-1.90
2018-02-14T22:04:00.048Z,-1.83
2018-02-14T22:06:28.416Z,-1.71
2018-02-14T22:08:56.849Z,-1.77
2018-02-14T22:11:25.231Z,-1.91
2018-02-14T22:13:53.582Z,-1.94
2018-02-14T22:16:22.009Z,-1.90
2018-02-14T22:18:50.492Z,-1.96
2018-02-14T22:21:18.835Z,-1.82
2018-02-14T22:23:47.206Z,-1.85
2018-02-14T22:26:15.550Z,-1.89
2018-02-14T22:28:43.922Z,-1.95
2018-02-14T22:31:12.275Z,-1.85
2018-02-14T22:33:40.645Z,-1.93
2018-02-14T22:36:08.998Z,-1.93
2018-02-14T22:38:37.416Z,-1.90
2018-02-14T22:41:05.816Z,-1.81
2018-02-14T22:43:34.159Z,-1.92
2018-02-14T22:46:02.526Z,-1.98
2018-02-14T22:48:30.889Z,-2.07
2018-02-14T22:50:59.247Z,-2.10
2018-02-14T22:53:27.588Z,-2.13
2018-02-14T22:55:56.039Z,-2.05
2018-02-14T22:58:24.390Z,-2.05
2018-02-14T23:00:52.803Z,-2.17
2018-02-14T23:03:21.168Z,-2.27
2018-02-14T23:05:49.523Z,-2.29
2018-02-14T23:08:17.878Z,-2.29
2018-02-14T23:10:46.323Z,-2.26
2018-02-14T23:13:14.683Z,-2.24
2018-02-14T23:15:43.024Z,-2.30
2018-02-14T23:18:11.449Z,-2.31
2018-02-14T23:20:39.811Z,-2.33
2018-02-14T23:23:08.194Z,-2.29
2018-02-14T23:30:13.302Z,-2.42
2018-02-14T23:32:41.650Z,-2.37
2018-02-14T23:35:10.014Z,-2.38
2018-02-14T23:37:38.368Z,-2.37
2018-02-14T23:40:06.779Z,-2.45
2018-02-14T23:42:35.170Z,-2.59
2018-02-14T23:45:03.532Z,-2.42
2018-02-14T23:47:31.883Z,-2.49
2018-02-14T23:50:00.352Z,-2.62
2018-02-14T23:52:28.695Z,-2.60
2018-02-14T23:54:57.075Z,-2.57
2018-02-14T23:57:25.422Z,-2.62
2018-02-14T23:59:53.771Z,-2.59
